Alicante, Spain

1:15 PM CEST on September 25, 2017 (GMT +0200)
Alicante

Weather History for LEAL - February, 2014

Change the Weather History Date:

Wednesday, February 12, 2014

  Actual Average Record
Temperature  
Mean Temperature 57 °F -  
Max Temperature 69 °F 62 °F 75 °F (2016)
Min Temperature 45 °F 44 °F 33 °F (2012)
Degree Days  
Heating Degree Days 8    
Growing Degree Days 7 (Base 50)    
Moisture  
Dew Point 43 °F    
Average Humidity 58    
Maximum Humidity 88    
Minimum Humidity 22    
Precipitation  
Precipitation 0.00 in - - ()
Sea Level Pressure  
Sea Level Pressure 30.07 in    
Wind  
Wind Speed 10 mph ()    
Max Wind Speed 23 mph    
Max Gust Speed 29 mph    
Visibility 9.2 miles    
Events      
Averages and records for this station are not official NWS values.
T = Trace of Precipitation, MM = Missing Value Source: Averaged Metar Reports

Daily Weather History Graph

Daily Weather History Graph

Search for Another Location

Airport or City:

Trip Planner

Search our weather history database for the weather conditions in past years. The results will help you decide how hot, cold, wet, or windy it might be!

Date:

Astronomy

Feb. 12, 2014 Rise Set
Actual Time 7:56 AM CET 6:37 PM CET
Civil Twilight 7:29 AM CET 7:04 PM CET
Nautical Twilight 6:58 AM CET 7:35 PM CET
Astronomical Twilight 6:27 AM CET 8:06 PM CET
Moon 4:38 PM CET (2/12) 6:02 AM CET (2/12)
Length of Visible Light 11h 35m
Length of Day
10h 40m
Waxing Gibbous, 94% of the Moon is Illuminated
Feb 12
Waxing Gibbous
Feb 15
Full
Feb 22
Last Quarter
Mar 1
New
Mar 8
First Quarter

Hourly Weather History & Observations

Time (CET) Temp. Dew Point Humidity Pressure Visibility Wind Dir Wind Speed Gust Speed Precip Events Conditions
12:00 AM 47 °F 37 °F 57% 30.01 in - West 9.2 mph - -  
12:00 AM 50.0 °F 39.2 °F 66% 29.98 in 6.2 mi West 9.2 mph - N/A   Partly Cloudy
12:30 AM 51.8 °F 39.2 °F 62% 29.98 in 6.2 mi West 10.4 mph - N/A   Partly Cloudy
1:00 AM 48 °F 37 °F 54% 30.01 in 12 mi SSW 9.2 mph - -   Scattered Clouds
1:00 AM 50.0 °F 39.2 °F 66% 30.01 in 6.2 mi SW 8.1 mph - N/A   Partly Cloudy
1:30 AM 50.0 °F 39.2 °F 66% 29.98 in 6.2 mi West 6.9 mph - N/A   Partly Cloudy
2:00 AM 47 °F 37 °F 59% 30.01 in - WSW 9.2 mph - -  
2:00 AM 50.0 °F 39.2 °F 66% 30.01 in 6.2 mi WSW 6.9 mph - N/A   Partly Cloudy
2:30 AM 50.0 °F 41.0 °F 71% 29.98 in 6.2 mi WSW 12.7 mph - N/A   Partly Cloudy
3:00 AM 53 °F 41 °F 53% 30.00 in - West 13.8 mph - -  
3:00 AM 53.6 °F 42.8 °F 67% 29.98 in 6.2 mi West 12.7 mph - N/A   Partly Cloudy
3:30 AM 48.2 °F 41.0 °F 76% 30.01 in 6.2 mi SW 8.1 mph - N/A   Partly Cloudy
4:00 AM 51 °F 41 °F 60% 30.01 in 12 mi West 16.1 mph - -   Scattered Clouds
4:00 AM 53.6 °F 42.8 °F 67% 30.01 in 6.2 mi West 13.8 mph - N/A   Partly Cloudy
4:30 AM 53.6 °F 42.8 °F 67% 30.01 in 6.2 mi West 6.9 mph - N/A   Partly Cloudy
5:00 AM 49 °F 40 °F 61% 30.02 in - West 9.2 mph - -  
5:00 AM 51.8 °F 42.8 °F 71% 30.01 in 6.2 mi West 9.2 mph - N/A   Partly Cloudy
5:30 AM 53.6 °F 42.8 °F 67% 30.01 in 6.2 mi WNW 13.8 mph - N/A   Partly Cloudy
6:00 AM 51 °F 39 °F 53% 30.03 in - WNW 11.5 mph - -  
6:00 AM 53.6 °F 41.0 °F 62% 30.01 in 6.2 mi WNW 10.4 mph - N/A   Partly Cloudy
6:30 AM 53.6 °F 41.0 °F 62% 30.04 in 6.2 mi WNW 12.7 mph - N/A   Partly Cloudy
7:00 AM 49 °F 38 °F 56% 30.06 in 19 mi West 11.5 mph - -   Clear
7:00 AM 51.8 °F 41.0 °F 67% 30.04 in - West 10.4 mph - N/A   Clear
7:30 AM 51.8 °F 41.0 °F 67% 30.06 in - West 10.4 mph - N/A   Clear
8:00 AM 50 °F 38 °F 52% 30.09 in - West 12.7 mph - -  
8:00 AM 51.8 °F 39.2 °F 62% 30.06 in - West 13.8 mph 26.5 mph N/A   Clear
8:30 AM 51.8 °F 41.0 °F 67% 30.09 in - West 15.0 mph - N/A   Clear
9:00 AM 52 °F 38 °F 48% 30.12 in - West 15.0 mph - -  
9:00 AM 53.6 °F 41.0 °F 62% 30.09 in - West 15.0 mph - N/A   Clear
9:30 AM 55.4 °F 41.0 °F 58% 30.12 in - WNW 11.5 mph - N/A   Clear
10:00 AM 54 °F 39 °F 45% 30.14 in 19 mi West 18.4 mph - -  
10:00 AM 55.4 °F 41.0 °F 58% 30.12 in - West 17.3 mph 28.8 mph N/A   Clear
10:30 AM 57.2 °F 41.0 °F 55% 30.12 in - West 17.3 mph - N/A   Clear
11:00 AM 56 °F 39 °F 41% 30.15 in - WNW 21.9 mph - -  
11:00 AM 59.0 °F 41.0 °F 51% 30.12 in - WNW 19.6 mph - N/A   Clear
11:30 AM 59.0 °F 41.0 °F 51% 30.12 in - WNW 23.0 mph - N/A   Clear
12:00 PM 60 °F 39 °F 33% 30.14 in - WNW 15.0 mph - -  
12:00 PM 60.8 °F 41.0 °F 48% 30.12 in - West 18.4 mph - N/A   Clear
12:30 PM 62.6 °F 41.0 °F 45% 30.12 in - WNW 15.0 mph - N/A   Clear
1:00 PM 63 °F 37 °F 26% 30.12 in - West 16.1 mph - -  
1:00 PM 64.4 °F 39.2 °F 40% 30.12 in - West 15.0 mph - N/A   Clear
1:30 PM 66.2 °F 41.0 °F 40% 30.12 in - WNW 16.1 mph - N/A   Clear
2:00 PM 65 °F 38 °F 26% 30.12 in - WNW 17.3 mph - -  
2:00 PM 68.0 °F 41.0 °F 37% 30.12 in - WNW 15.0 mph - N/A   Clear
2:30 PM 68.0 °F 41.0 °F 37% 30.09 in - WNW 10.4 mph - N/A   Clear
3:00 PM 67 °F 37 °F 22% 30.09 in - West 12.7 mph - -  
3:00 PM 68.0 °F 39.2 °F 35% 30.09 in - WNW 10.4 mph - N/A   Clear
3:30 PM 69.8 °F 37.4 °F 31% 30.06 in - West 4.6 mph - N/A   Clear
4:00 PM 69.8 °F 37.4 °F 31% 30.06 in - SSW 8.1 mph - N/A   Clear
4:30 PM 69.8 °F 39.2 °F 33% 30.06 in - SSW 5.8 mph - N/A   Clear
5:00 PM 63 °F 46 °F 42% 30.07 in - South 13.8 mph - -  
5:00 PM 64.4 °F 48.2 °F 56% 30.06 in - South 12.7 mph - N/A   Clear
5:30 PM 62.6 °F 48.2 °F 59% 30.06 in - South 10.4 mph - N/A   Clear
6:00 PM 60 °F 48 °F 54% 30.07 in - South 10.4 mph - -  
6:00 PM 62.6 °F 50.0 °F 63% 30.06 in - South 9.2 mph - N/A   Clear
6:30 PM 60.8 °F 50.0 °F 68% 30.06 in - South 9.2 mph - N/A   Clear
7:00 PM 58 °F 49 °F 64% 30.09 in 19 mi SSW 4.6 mph - -   Clear
7:00 PM 60.8 °F 51.8 °F 72% 30.06 in - South 4.6 mph - N/A   Clear
7:30 PM 60.8 °F 48.2 °F 63% 30.09 in - SSW 6.9 mph - N/A   Clear
8:00 PM 57 °F 47 °F 59% 30.11 in - South 4.6 mph - -  
8:00 PM 59.0 °F 48.2 °F 67% 30.09 in - South 4.6 mph - N/A   Clear
8:30 PM 59.0 °F 48.2 °F 67% 30.09 in - South 4.6 mph - N/A   Clear
9:00 PM 55 °F 47 °F 67% 30.10 in - South 4.6 mph - -  
9:00 PM 57.2 °F 50.0 °F 77% 30.09 in - South 4.6 mph - N/A   Clear
9:30 PM 57.2 °F 50.0 °F 77% 30.09 in - South 4.6 mph - N/A   Clear
10:00 PM 54 °F 49 °F 76% 30.11 in 16 mi SSW 5.8 mph - -  
10:00 PM 57.2 °F 50.0 °F 77% 30.09 in - SSW 4.6 mph - N/A   Clear
10:30 PM 57.2 °F 51.8 °F 82% 30.09 in - SSW 4.6 mph - N/A   Clear
11:00 PM 54 °F 50 °F 81% 30.11 in - South 5.8 mph - -  
11:00 PM 55.4 °F 51.8 °F 88% 30.09 in - South 4.6 mph - N/A   Clear
11:30 PM 55.4 °F 51.8 °F 88% 30.09 in - South 5.8 mph - N/A   Clear